sensor_id;sensor_type;location;lat;lon;timestamp;P1;P2;P0
56495;PMS5003;42804;55.762;38.084;2022-10-16T00:01:36;36.20;31.60;22.80
56495;PMS5003;42804;55.762;38.084;2022-10-16T00:04:04;39.00;32.60;22.20
56495;PMS5003;42804;55.762;38.084;2022-10-16T00:06:34;30.80;28.00;19.40
56495;PMS5003;42804;55.762;38.084;2022-10-16T00:09:02;29.80;25.80;15.80
56495;PMS5003;42804;55.762;38.084;2022-10-16T00:11:31;37.80;33.20;24.80
56495;PMS5003;42804;55.762;38.084;2022-10-16T00:14:04;39.20;33.40;23.00
56495;PMS5003;42804;55.762;38.084;2022-10-16T00:16:32;40.20;32.80;19.40
56495;PMS5003;42804;55.762;38.084;2022-10-16T00:19:01;39.60;35.40;21.80
56495;PMS5003;42804;55.762;38.084;2022-10-16T00:21:30;35.00;32.00;23.00
56495;PMS5003;42804;55.762;38.084;2022-10-16T00:24:18;37.00;31.40;21.20
56495;PMS5003;42804;55.762;38.084;2022-10-16T00:26:49;34.40;32.40;23.40
56495;PMS5003;42804;55.762;38.084;2022-10-16T00:29:17;38.20;35.80;24.00
56495;PMS5003;42804;55.762;38.084;2022-10-16T00:31:45;43.20;38.00;25.00
56495;PMS5003;42804;55.762;38.084;2022-10-16T00:34:13;41.40;37.40;25.20
56495;PMS5003;42804;55.762;38.084;2022-10-16T00:36:41;28.40;27.20;18.40
56495;PMS5003;42804;55.762;38.084;2022-10-16T00:39:09;33.60;31.80;19.60
56495;PMS5003;42804;55.762;38.084;2022-10-16T00:41:40;38.40;35.80;22.20
56495;PMS5003;42804;55.762;38.084;2022-10-16T00:46:55;33.60;31.80;20.40
56495;PMS5003;42804;55.762;38.084;2022-10-16T00:49:24;41.00;34.80;22.60
56495;PMS5003;42804;55.762;38.084;2022-10-16T00:51:53;34.00;32.80;22.40
56495;PMS5003;42804;55.762;38.084;2022-10-16T00:54:22;43.60;35.00;23.00
56495;PMS5003;42804;55.762;38.084;2022-10-16T00:56:52;41.00;31.20;20.80
56495;PMS5003;42804;55.762;38.084;2022-10-16T00:59:23;28.40;21.20;13.40
56495;PMS5003;42804;55.762;38.084;2022-10-16T01:01:52;31.80;28.40;18.60
56495;PMS5003;42804;55.762;38.084;2022-10-16T01:04:20;28.20;24.00;15.60
56495;PMS5003;42804;55.762;38.084;2022-10-16T01:06:50;30.20;29.00;20.00
56495;PMS5003;42804;55.762;38.084;2022-10-16T01:09:23;30.00;21.20;12.40
56495;PMS5003;42804;55.762;38.084;2022-10-16T01:11:59;31.80;26.20;20.60
56495;PMS5003;42804;55.762;38.084;2022-10-16T01:14:32;28.20;22.80;16.80
56495;PMS5003;42804;55.762;38.084;2022-10-16T01:17:06;39.00;31.00;19.20
56495;PMS5003;42804;55.762;38.084;2022-10-16T01:19:58;36.40;28.20;18.80
56495;PMS5003;42804;55.762;38.084;2022-10-16T01:22:33;25.00;22.80;13.80
56495;PMS5003;42804;55.762;38.084;2022-10-16T01:25:05;35.00;30.40;17.80
56495;PMS5003;42804;55.762;38.084;2022-10-16T01:27:39;32.60;25.80;16.20
56495;PMS5003;42804;55.762;38.084;2022-10-16T01:30:09;32.60;28.80;17.60
56495;PMS5003;42804;55.762;38.084;2022-10-16T01:32:41;30.80;26.20;18.20
56495;PMS5003;42804;55.762;38.084;2022-10-16T01:35:14;31.60;26.00;21.20
56495;PMS5003;42804;55.762;38.084;2022-10-16T01:37:48;31.80;27.80;19.00
56495;PMS5003;42804;55.762;38.084;2022-10-16T01:40:19;31.00;23.40;15.20
56495;PMS5003;42804;55.762;38.084;2022-10-16T01:42:50;25.20;20.60;15.80
56495;PMS5003;42804;55.762;38.084;2022-10-16T01:45:20;26.00;23.00;15.00
56495;PMS5003;42804;55.762;38.084;2022-10-16T01:47:49;25.40;24.20;17.20
56495;PMS5003;42804;55.762;38.084;2022-10-16T01:50:20;29.00;24.20;18.00
56495;PMS5003;42804;55.762;38.084;2022-10-16T01:52:49;23.80;23.40;15.40
56495;PMS5003;42804;55.762;38.084;2022-10-16T01:55:20;30.40;28.20;19.60
56495;PMS5003;42804;55.762;38.084;2022-10-16T01:57:51;28.00;25.00;17.80
56495;PMS5003;42804;55.762;38.084;2022-10-16T02:00:21;30.20;27.40;17.60
56495;PMS5003;42804;55.762;38.084;2022-10-16T02:02:51;32.80;26.80;18.80
56495;PMS5003;42804;55.762;38.084;2022-10-16T02:05:22;31.00;29.60;22.00
56495;PMS5003;42804;55.762;38.084;2022-10-16T02:07:53;28.80;27.40;18.80
56495;PMS5003;42804;55.762;38.084;2022-10-16T02:10:26;29.60;27.60;18.60
56495;PMS5003;42804;55.762;38.084;2022-10-16T02:13:00;24.80;24.20;16.80
56495;PMS5003;42804;55.762;38.084;2022-10-16T02:15:50;27.20;22.80;17.20
56495;PMS5003;42804;55.762;38.084;2022-10-16T02:18:20;31.80;27.80;18.00
56495;PMS5003;42804;55.762;38.084;2022-10-16T02:20:51;27.00;26.60;18.60
56495;PMS5003;42804;55.762;38.084;2022-10-16T02:23:22;27.60;22.20;13.60
56495;PMS5003;42804;55.762;38.084;2022-10-16T02:25:53;30.00;28.40;21.00
56495;PMS5003;42804;55.762;38.084;2022-10-16T02:28:23;28.40;25.40;17.20
56495;PMS5003;42804;55.762;38.084;2022-10-16T02:30:54;28.60;23.20;15.60
56495;PMS5003;42804;55.762;38.084;2022-10-16T02:33:25;19.80;14.00;5.00
56495;PMS5003;42804;55.762;38.084;2022-10-16T02:35:54;26.20;24.00;14.20
56495;PMS5003;42804;55.762;38.084;2022-10-16T02:38:23;30.40;26.80;16.40
56495;PMS5003;42804;55.762;38.084;2022-10-16T02:40:54;24.80;23.40;15.20
56495;PMS5003;42804;55.762;38.084;2022-10-16T02:43:24;23.00;20.80;12.80
56495;PMS5003;42804;55.762;38.084;2022-10-16T02:45:53;25.80;24.40;18.80
56495;PMS5003;42804;55.762;38.084;2022-10-16T02:48:21;29.00;27.40;19.00
56495;PMS5003;42804;55.762;38.084;2022-10-16T02:50:49;31.00;27.60;17.60
56495;PMS5003;42804;55.762;38.084;2022-10-16T02:53:18;30.80;23.80;16.00
56495;PMS5003;42804;55.762;38.084;2022-10-16T02:55:46;22.40;22.40;17.20
56495;PMS5003;42804;55.762;38.084;2022-10-16T02:58:15;31.60;30.40;19.60
56495;PMS5003;42804;55.762;38.084;2022-10-16T03:00:46;30.60;29.20;20.20
56495;PMS5003;42804;55.762;38.084;2022-10-16T03:03:16;31.80;30.80;21.20
56495;PMS5003;42804;55.762;38.084;2022-10-16T03:05:44;35.80;30.40;21.80
56495;PMS5003;42804;55.762;38.084;2022-10-16T03:08:13;28.60;25.60;15.20
56495;PMS5003;42804;55.762;38.084;2022-10-16T03:10:41;32.00;29.00;23.20
56495;PMS5003;42804;55.762;38.084;2022-10-16T03:13:09;36.20;28.40;18.20
56495;PMS5003;42804;55.762;38.084;2022-10-16T03:15:44;39.40;34.60;21.80
56495;PMS5003;42804;55.762;38.084;2022-10-16T03:18:16;31.00;29.20;21.20
56495;PMS5003;42804;55.762;38.084;2022-10-16T03:20:44;36.00;30.80;20.80
56495;PMS5003;42804;55.762;38.084;2022-10-16T03:23:12;28.80;27.60;17.60
56495;PMS5003;42804;55.762;38.084;2022-10-16T03:25:40;31.00;27.40;19.40
56495;PMS5003;42804;55.762;38.084;2022-10-16T03:28:08;34.20;25.80;18.60
56495;PMS5003;42804;55.762;38.084;2022-10-16T03:30:38;28.60;25.40;17.00
56495;PMS5003;42804;55.762;38.084;2022-10-16T03:33:06;24.80;21.60;15.80
56495;PMS5003;42804;55.762;38.084;2022-10-16T03:35:35;31.20;26.60;18.20
56495;PMS5003;42804;55.762;38.084;2022-10-16T03:38:04;28.40;27.20;18.40
56495;PMS5003;42804;55.762;38.084;2022-10-16T03:40:32;23.20;21.60;13.80
56495;PMS5003;42804;55.762;38.084;2022-10-16T03:43:00;29.20;25.80;17.60
56495;PMS5003;42804;55.762;38.084;2022-10-16T03:45:28;26.60;22.40;17.60
56495;PMS5003;42804;55.762;38.084;2022-10-16T03:47:56;27.60;24.60;16.00
56495;PMS5003;42804;55.762;38.084;2022-10-16T03:50:24;25.20;24.00;17.20
56495;PMS5003;42804;55.762;38.084;2022-10-16T03:52:54;31.20;26.60;18.60
56495;PMS5003;42804;55.762;38.084;2022-10-16T03:55:22;31.20;27.60;19.00
56495;PMS5003;42804;55.762;38.084;2022-10-16T03:57:50;25.40;24.00;17.20
56495;PMS5003;42804;55.762;38.084;2022-10-16T04:00:18;24.60;23.60;16.00
56495;PMS5003;42804;55.762;38.084;2022-10-16T04:02:46;34.20;30.60;20.20
56495;PMS5003;42804;55.762;38.084;2022-10-16T04:05:17;30.40;25.80;17.20
56495;PMS5003;42804;55.762;38.084;2022-10-16T04:07:45;27.20;24.80;18.00
56495;PMS5003;42804;55.762;38.084;2022-10-16T04:10:14;27.00;22.00;17.20
56495;PMS5003;42804;55.762;38.084;2022-10-16T04:12:42;28.20;24.80;17.60
56495;PMS5003;42804;55.762;38.084;2022-10-16T04:15:10;26.80;22.80;15.60
56495;PMS5003;42804;55.762;38.084;2022-10-16T04:17:38;29.60;27.00;16.00
56495;PMS5003;42804;55.762;38.084;2022-10-16T04:20:07;33.00;26.80;15.00
56495;PMS5003;42804;55.762;38.084;2022-10-16T04:22:35;34.20;27.20;19.00
56495;PMS5003;42804;55.762;38.084;2022-10-16T04:25:03;25.00;22.80;16.00
56495;PMS5003;42804;55.762;38.084;2022-10-16T04:27:33;30.20;26.60;16.40
56495;PMS5003;42804;55.762;38.084;2022-10-16T04:30:01;24.00;24.00;17.20
56495;PMS5003;42804;55.762;38.084;2022-10-16T04:32:29;25.60;24.80;17.60
56495;PMS5003;42804;55.762;38.084;2022-10-16T04:34:58;25.80;22.00;15.60
56495;PMS5003;42804;55.762;38.084;2022-10-16T04:37:26;20.75;19.00;11.00
56495;PMS5003;42804;55.762;38.084;2022-10-16T04:39:54;23.00;20.60;15.00
56495;PMS5003;42804;55.762;38.084;2022-10-16T04:42:23;28.00;22.80;16.00
56495;PMS5003;42804;55.762;38.084;2022-10-16T04:44:58;24.80;22.60;15.60
56495;PMS5003;42804;55.762;38.084;2022-10-16T04:48:07;26.00;19.20;13.00
56495;PMS5003;42804;55.762;38.084;2022-10-16T04:50:35;25.00;23.20;16.00
56495;PMS5003;42804;55.762;38.084;2022-10-16T04:53:06;28.60;26.60;15.00
56495;PMS5003;42804;55.762;38.084;2022-10-16T04:55:34;24.80;24.40;15.60
56495;PMS5003;42804;55.762;38.084;2022-10-16T04:58:02;26.40;23.60;15.40
56495;PMS5003;42804;55.762;38.084;2022-10-16T05:00:31;28.60;22.20;13.00
56495;PMS5003;42804;55.762;38.084;2022-10-16T05:02:59;22.60;21.00;12.00
56495;PMS5003;42804;55.762;38.084;2022-10-16T05:05:28;28.60;24.00;17.80
56495;PMS5003;42804;55.762;38.084;2022-10-16T05:07:56;30.80;29.60;19.60
56495;PMS5003;42804;55.762;38.084;2022-10-16T05:10:24;32.60;25.60;18.00
56495;PMS5003;42804;55.762;38.084;2022-10-16T05:12:52;34.20;33.00;21.00
56495;PMS5003;42804;55.762;38.084;2022-10-16T05:15:20;51.60;46.00;28.20
56495;PMS5003;42804;55.762;38.084;2022-10-16T05:17:55;34.20;28.60;20.80
56495;PMS5003;42804;55.762;38.084;2022-10-16T05:20:23;31.80;29.20;22.00
56495;PMS5003;42804;55.762;38.084;2022-10-16T05:22:51;32.80;30.80;20.20
56495;PMS5003;42804;55.762;38.084;2022-10-16T05:25:20;44.60;35.00;23.00
56495;PMS5003;42804;55.762;38.084;2022-10-16T05:27:48;37.40;34.20;24.40
56495;PMS5003;42804;55.762;38.084;2022-10-16T05:30:16;32.60;29.00;20.20
56495;PMS5003;42804;55.762;38.084;2022-10-16T05:32:46;28.00;26.20;19.80
56495;PMS5003;42804;55.762;38.084;2022-10-16T05:35:15;31.20;26.40;16.40
56495;PMS5003;42804;55.762;38.084;2022-10-16T05:37:44;28.40;26.20;19.60
56495;PMS5003;42804;55.762;38.084;2022-10-16T05:40:12;32.40;28.00;22.80
56495;PMS5003;42804;55.762;38.084;2022-10-16T05:42:41;25.40;23.60;15.80
56495;PMS5003;42804;55.762;38.084;2022-10-16T05:45:09;29.25;27.00;20.25
56495;PMS5003;42804;55.762;38.084;2022-10-16T05:47:38;28.60;25.60;15.40
56495;PMS5003;42804;55.762;38.084;2022-10-16T05:50:07;27.20;26.80;21.00
56495;PMS5003;42804;55.762;38.084;2022-10-16T05:52:37;34.00;30.60;22.00
56495;PMS5003;42804;55.762;38.084;2022-10-16T05:55:05;36.20;31.00;22.00
56495;PMS5003;42804;55.762;38.084;2022-10-16T05:57:33;33.80;30.00;22.40
56495;PMS5003;42804;55.762;38.084;2022-10-16T06:00:02;31.00;27.20;16.60
56495;PMS5003;42804;55.762;38.084;2022-10-16T06:02:38;44.60;35.80;23.20
56495;PMS5003;42804;55.762;38.084;2022-10-16T06:05:06;30.00;28.00;20.00
56495;PMS5003;42804;55.762;38.084;2022-10-16T06:07:36;31.60;26.00;17.60
56495;PMS5003;42804;55.762;38.084;2022-10-16T06:10:05;32.40;28.40;20.20
56495;PMS5003;42804;55.762;38.084;2022-10-16T06:12:33;27.80;26.20;19.20
56495;PMS5003;42804;55.762;38.084;2022-10-16T06:15:02;32.40;28.00;18.20
56495;PMS5003;42804;55.762;38.084;2022-10-16T06:17:30;35.60;28.60;17.60
56495;PMS5003;42804;55.762;38.084;2022-10-16T06:19:59;23.40;20.20;16.00
56495;PMS5003;42804;55.762;38.084;2022-10-16T06:22:28;22.00;20.20;11.60
56495;PMS5003;42804;55.762;38.084;2022-10-16T06:24:58;26.75;24.25;16.25
56495;PMS5003;42804;55.762;38.084;2022-10-16T06:27:28;27.20;25.40;19.20
56495;PMS5003;42804;55.762;38.084;2022-10-16T06:29:56;26.20;25.00;20.20
56495;PMS5003;42804;55.762;38.084;2022-10-16T06:32:24;19.80;19.40;10.20
56495;PMS5003;42804;55.762;38.084;2022-10-16T06:34:52;27.40;26.20;19.60
56495;PMS5003;42804;55.762;38.084;2022-10-16T06:37:21;28.50;27.25;19.50
56495;PMS5003;42804;55.762;38.084;2022-10-16T06:39:50;31.00;31.00;20.00
56495;PMS5003;42804;55.762;38.084;2022-10-16T06:42:20;31.75;27.75;19.75
56495;PMS5003;42804;55.762;38.084;2022-10-16T06:44:49;24.80;22.00;13.20
56495;PMS5003;42804;55.762;38.084;2022-10-16T06:47:18;30.25;27.00;20.00
56495;PMS5003;42804;55.762;38.084;2022-10-16T06:49:46;28.00;26.75;20.25
56495;PMS5003;42804;55.762;38.084;2022-10-16T06:52:23;27.25;23.50;19.00
56495;PMS5003;42804;55.762;38.084;2022-10-16T06:54:55;20.25;20.25;15.50
56495;PMS5003;42804;55.762;38.084;2022-10-16T06:57:26;31.50;29.50;20.00
56495;PMS5003;42804;55.762;38.084;2022-10-16T06:59:57;28.50;24.00;16.00
56495;PMS5003;42804;55.762;38.084;2022-10-16T07:02:25;17.25;16.50;10.00
56495;PMS5003;42804;55.762;38.084;2022-10-16T07:04:56;28.25;24.00;17.00
56495;PMS5003;42804;55.762;38.084;2022-10-16T07:07:24;26.00;24.00;17.00
56495;PMS5003;42804;55.762;38.084;2022-10-16T07:09:53;30.50;26.50;16.25
56495;PMS5003;42804;55.762;38.084;2022-10-16T07:12:22;25.00;23.25;18.00
56495;PMS5003;42804;55.762;38.084;2022-10-16T07:14:52;30.25;28.25;20.25
56495;PMS5003;42804;55.762;38.084;2022-10-16T07:17:22;18.50;16.00;10.50
56495;PMS5003;42804;55.762;38.084;2022-10-16T07:19:50;29.25;26.25;20.75
56495;PMS5003;42804;55.762;38.084;2022-10-16T07:22:20;25.75;22.50;14.25
56495;PMS5003;42804;55.762;38.084;2022-10-16T07:24:48;30.00;25.25;18.25
56495;PMS5003;42804;55.762;38.084;2022-10-16T07:27:19;24.00;22.25;17.50
56495;PMS5003;42804;55.762;38.084;2022-10-16T07:29:51;53.40;46.80;31.20
56495;PMS5003;42804;55.762;38.084;2022-10-16T07:32:20;34.25;31.00;21.00
56495;PMS5003;42804;55.762;38.084;2022-10-16T07:34:49;20.75;20.25;13.25
56495;PMS5003;42804;55.762;38.084;2022-10-16T07:37:17;26.00;22.75;16.50
56495;PMS5003;42804;55.762;38.084;2022-10-16T07:39:45;27.75;26.50;17.25
56495;PMS5003;42804;55.762;38.084;2022-10-16T07:42:14;20.50;18.50;13.00
56495;PMS5003;42804;55.762;38.084;2022-10-16T07:44:42;31.50;26.50;18.75
56495;PMS5003;42804;55.762;38.084;2022-10-16T07:47:16;25.50;23.00;15.00
56495;PMS5003;42804;55.762;38.084;2022-10-16T07:49:48;28.25;26.50;17.75
56495;PMS5003;42804;55.762;38.084;2022-10-16T07:52:17;23.50;21.75;15.75
56495;PMS5003;42804;55.762;38.084;2022-10-16T07:54:45;26.25;23.00;14.50
56495;PMS5003;42804;55.762;38.084;2022-10-16T07:57:14;24.75;23.00;15.50
56495;PMS5003;42804;55.762;38.084;2022-10-16T07:59:46;21.25;18.00;14.25
56495;PMS5003;42804;55.762;38.084;2022-10-16T08:02:15;20.00;17.75;13.50
56495;PMS5003;42804;55.762;38.084;2022-10-16T08:04:51;25.00;20.50;14.00
56495;PMS5003;42804;55.762;38.084;2022-10-16T08:07:22;21.75;20.25;14.50
56495;PMS5003;42804;55.762;38.084;2022-10-16T08:09:51;19.50;16.00;14.00
56495;PMS5003;42804;55.762;38.084;2022-10-16T08:12:19;22.00;20.50;14.00
56495;PMS5003;42804;55.762;38.084;2022-10-16T08:14:48;24.75;21.00;14.75
56495;PMS5003;42804;55.762;38.084;2022-10-16T08:17:17;23.50;22.25;15.00
56495;PMS5003;42804;55.762;38.084;2022-10-16T08:19:46;17.25;14.50;9.50
56495;PMS5003;42804;55.762;38.084;2022-10-16T08:22:16;32.50;26.50;18.25
56495;PMS5003;42804;55.762;38.084;2022-10-16T08:24:44;23.00;20.25;14.50
56495;PMS5003;42804;55.762;38.084;2022-10-16T08:27:13;22.50;20.50;14.50
56495;PMS5003;42804;55.762;38.084;2022-10-16T08:29:42;24.50;22.00;15.25
56495;PMS5003;42804;55.762;38.084;2022-10-16T08:32:10;21.75;20.00;14.75
56495;PMS5003;42804;55.762;38.084;2022-10-16T08:34:38;24.00;18.50;11.50
56495;PMS5003;42804;55.762;38.084;2022-10-16T08:37:07;21.00;20.50;15.50
56495;PMS5003;42804;55.762;38.084;2022-10-16T08:39:39;23.75;18.25;12.50
56495;PMS5003;42804;55.762;38.084;2022-10-16T08:42:12;32.75;30.00;19.50
56495;PMS5003;42804;55.762;38.084;2022-10-16T08:44:47;34.25;30.75;17.50
56495;PMS5003;42804;55.762;38.084;2022-10-16T08:47:22;27.25;25.75;18.50
56495;PMS5003;42804;55.762;38.084;2022-10-16T08:49:54;29.00;26.25;19.75
56495;PMS5003;42804;55.762;38.084;2022-10-16T08:52:29;24.25;21.50;13.50
56495;PMS5003;42804;55.762;38.084;2022-10-16T08:55:00;24.00;22.25;15.25
56495;PMS5003;42804;55.762;38.084;2022-10-16T08:57:29;22.25;19.25;14.50
56495;PMS5003;42804;55.762;38.084;2022-10-16T09:03:42;19.50;18.75;14.00
56495;PMS5003;42804;55.762;38.084;2022-10-16T09:09:02;23.00;17.25;11.50
56495;PMS5003;42804;55.762;38.084;2022-10-16T09:11:39;18.25;17.25;13.00
56495;PMS5003;42804;55.762;38.084;2022-10-16T09:14:18;18.50;18.25;12.00
56495;PMS5003;42804;55.762;38.084;2022-10-16T09:16:53;22.75;18.25;12.00
56495;PMS5003;42804;55.762;38.084;2022-10-16T09:19:28;21.50;17.50;12.00
56495;PMS5003;42804;55.762;38.084;2022-10-16T09:22:09;18.50;17.00;11.25
56495;PMS5003;42804;55.762;38.084;2022-10-16T09:24:40;22.75;18.25;12.75
56495;PMS5003;42804;55.762;38.084;2022-10-16T09:27:08;20.25;18.50;11.00
56495;PMS5003;42804;55.762;38.084;2022-10-16T09:29:38;19.25;16.25;10.00
56495;PMS5003;42804;55.762;38.084;2022-10-16T09:32:09;20.25;19.25;13.00
56495;PMS5003;42804;55.762;38.084;2022-10-16T09:34:39;17.50;16.00;11.50
56495;PMS5003;42804;55.762;38.084;2022-10-16T09:37:12;25.75;18.25;12.00
56495;PMS5003;42804;55.762;38.084;2022-10-16T09:39:46;18.75;18.00;12.25
56495;PMS5003;42804;55.762;38.084;2022-10-16T09:42:16;24.00;21.50;14.00
56495;PMS5003;42804;55.762;38.084;2022-10-16T09:44:47;18.00;16.50;12.00
56495;PMS5003;42804;55.762;38.084;2022-10-16T09:47:18;17.25;16.50;10.25
56495;PMS5003;42804;55.762;38.084;2022-10-16T09:49:52;14.50;12.25;9.25
56495;PMS5003;42804;55.762;38.084;2022-10-16T09:52:29;13.00;13.00;9.75
56495;PMS5003;42804;55.762;38.084;2022-10-16T09:55:00;25.00;20.25;12.00
56495;PMS5003;42804;55.762;38.084;2022-10-16T09:57:28;16.50;14.00;9.00
56495;PMS5003;42804;55.762;38.084;2022-10-16T09:59:58;13.50;13.00;7.25
56495;PMS5003;42804;55.762;38.084;2022-10-16T10:02:27;12.75;12.25;8.25
56495;PMS5003;42804;55.762;38.084;2022-10-16T10:05:00;14.50;13.75;8.50
56495;PMS5003;42804;55.762;38.084;2022-10-16T10:07:32;12.25;11.25;8.25
56495;PMS5003;42804;55.762;38.084;2022-10-16T10:10:04;15.00;12.75;10.50
56495;PMS5003;42804;55.762;38.084;2022-10-16T10:12:33;17.50;14.00;9.50
56495;PMS5003;42804;55.762;38.084;2022-10-16T10:15:04;14.50;12.25;9.00
56495;PMS5003;42804;55.762;38.084;2022-10-16T10:17:45;12.25;11.50;9.25
56495;PMS5003;42804;55.762;38.084;2022-10-16T10:20:21;15.75;15.00;8.75
56495;PMS5003;42804;55.762;38.084;2022-10-16T10:22:50;9.00;8.00;6.25
56495;PMS5003;42804;55.762;38.084;2022-10-16T10:25:24;13.50;13.50;9.00
56495;PMS5003;42804;55.762;38.084;2022-10-16T10:28:01;12.00;11.50;8.00
56495;PMS5003;42804;55.762;38.084;2022-10-16T10:30:36;12.50;11.25;7.75
56495;PMS5003;42804;55.762;38.084;2022-10-16T10:33:17;15.50;14.75;9.00
56495;PMS5003;42804;55.762;38.084;2022-10-16T10:35:49;18.50;16.75;10.50
56495;PMS5003;42804;55.762;38.084;2022-10-16T10:38:25;54.75;44.00;27.00
56495;PMS5003;42804;55.762;38.084;2022-10-16T10:40:58;12.00;11.50;9.00
56495;PMS5003;42804;55.762;38.084;2022-10-16T10:43:37;4.50;3.00;2.00
56495;PMS5003;42804;55.762;38.084;2022-10-16T10:46:08;10.50;9.75;6.00
56495;PMS5003;42804;55.762;38.084;2022-10-16T10:48:49;13.75;10.25;7.00
56495;PMS5003;42804;55.762;38.084;2022-10-16T10:51:28;11.50;8.75;7.50
56495;PMS5003;42804;55.762;38.084;2022-10-16T10:54:02;10.00;9.75;6.00
56495;PMS5003;42804;55.762;38.084;2022-10-16T10:56:41;14.25;9.75;7.75
56495;PMS5003;42804;55.762;38.084;2022-10-16T10:59:25;9.00;8.75;6.00
56495;PMS5003;42804;55.762;38.084;2022-10-16T11:01:58;12.75;9.50;6.50
56495;PMS5003;42804;55.762;38.084;2022-10-16T11:04:39;9.75;8.00;6.50
56495;PMS5003;42804;55.762;38.084;2022-10-16T11:07:15;7.25;6.75;3.50
56495;PMS5003;42804;55.762;38.084;2022-10-16T11:09:45;12.00;10.75;6.00
56495;PMS5003;42804;55.762;38.084;2022-10-16T11:12:17;11.50;9.00;7.00
56495;PMS5003;42804;55.762;38.084;2022-10-16T11:14:56;9.75;8.00;6.75
56495;PMS5003;42804;55.762;38.084;2022-10-16T11:17:33;9.75;9.00;7.00
56495;PMS5003;42804;55.762;38.084;2022-10-16T11:20:05;11.00;10.50;7.00
56495;PMS5003;42804;55.762;38.084;2022-10-16T11:22:44;7.00;5.25;1.00
56495;PMS5003;42804;55.762;38.084;2022-10-16T11:25:16;11.00;10.50;7.50
56495;PMS5003;42804;55.762;38.084;2022-10-16T11:27:49;9.75;9.00;6.50
56495;PMS5003;42804;55.762;38.084;2022-10-16T11:30:29;11.25;8.00;6.00
56495;PMS5003;42804;55.762;38.084;2022-10-16T11:33:03;9.00;8.50;4.50
56495;PMS5003;42804;55.762;38.084;2022-10-16T11:35:36;10.75;10.00;7.25
56495;PMS5003;42804;55.762;38.084;2022-10-16T11:38:09;12.00;10.50;7.50
56495;PMS5003;42804;55.762;38.084;2022-10-16T11:40:41;14.75;12.50;8.00
56495;PMS5003;42804;55.762;38.084;2022-10-16T11:43:13;13.25;8.25;6.50
56495;PMS5003;42804;55.762;38.084;2022-10-16T11:45:43;12.25;10.50;7.75
56495;PMS5003;42804;55.762;38.084;2022-10-16T11:48:18;11.50;11.00;7.00
56495;PMS5003;42804;55.762;38.084;2022-10-16T11:50:50;13.50;11.00;7.00
56495;PMS5003;42804;55.762;38.084;2022-10-16T11:53:28;11.50;9.00;5.25
56495;PMS5003;42804;55.762;38.084;2022-10-16T11:56:03;11.00;8.25;5.00
56495;PMS5003;42804;55.762;38.084;2022-10-16T11:58:33;13.25;12.75;8.00
56495;PMS5003;42804;55.762;38.084;2022-10-16T12:01:10;12.75;9.25;7.00
56495;PMS5003;42804;55.762;38.084;2022-10-16T12:03:45;9.50;9.00;5.00
56495;PMS5003;42804;55.762;38.084;2022-10-16T12:06:22;12.00;11.75;7.75
56495;PMS5003;42804;55.762;38.084;2022-10-16T12:08:54;7.75;7.25;2.00
56495;PMS5003;42804;55.762;38.084;2022-10-16T12:11:33;14.50;10.50;7.75
56495;PMS5003;42804;55.762;38.084;2022-10-16T12:14:21;12.50;12.00;7.00
56495;PMS5003;42804;55.762;38.084;2022-10-16T12:16:52;12.50;11.00;6.50
56495;PMS5003;42804;55.762;38.084;2022-10-16T12:19:22;12.00;10.75;8.00
56495;PMS5003;42804;55.762;38.084;2022-10-16T12:21:51;11.50;9.75;6.75
56495;PMS5003;42804;55.762;38.084;2022-10-16T12:24:21;10.50;10.00;6.00
56495;PMS5003;42804;55.762;38.084;2022-10-16T12:26:50;10.75;7.75;6.75
56495;PMS5003;42804;55.762;38.084;2022-10-16T12:29:26;15.50;15.50;10.75
56495;PMS5003;42804;55.762;38.084;2022-10-16T12:31:57;12.75;10.00;7.25
56495;PMS5003;42804;55.762;38.084;2022-10-16T12:34:27;13.75;10.25;7.00
56495;PMS5003;42804;55.762;38.084;2022-10-16T12:36:56;8.50;7.50;4.00
56495;PMS5003;42804;55.762;38.084;2022-10-16T12:39:37;11.25;10.25;6.50
56495;PMS5003;42804;55.762;38.084;2022-10-16T12:42:06;7.25;7.25;3.00
56495;PMS5003;42804;55.762;38.084;2022-10-16T12:44:48;7.00;6.25;2.00
56495;PMS5003;42804;55.762;38.084;2022-10-16T12:47:22;10.75;9.50;7.50
56495;PMS5003;42804;55.762;38.084;2022-10-16T12:49:56;13.50;12.00;8.00
56495;PMS5003;42804;55.762;38.084;2022-10-16T12:52:39;7.25;7.25;3.25
56495;PMS5003;42804;55.762;38.084;2022-10-16T12:55:14;13.75;12.00;8.50
56495;PMS5003;42804;55.762;38.084;2022-10-16T12:57:47;19.00;15.00;9.00
56495;PMS5003;42804;55.762;38.084;2022-10-16T13:00:23;18.50;13.00;7.00
56495;PMS5003;42804;55.762;38.084;2022-10-16T13:05:42;21.00;17.50;10.00
56495;PMS5003;42804;55.762;38.084;2022-10-16T13:08:22;16.75;14.50;9.00
56495;PMS5003;42804;55.762;38.084;2022-10-16T13:10:57;24.50;22.75;12.75
56495;PMS5003;42804;55.762;38.084;2022-10-16T13:13:45;19.75;17.50;12.50
56495;PMS5003;42804;55.762;38.084;2022-10-16T13:16:22;16.25;13.50;8.00
56495;PMS5003;42804;55.762;38.084;2022-10-16T13:18:58;16.50;15.25;10.50
56495;PMS5003;42804;55.762;38.084;2022-10-16T13:21:32;18.25;18.25;12.00
56495;PMS5003;42804;55.762;38.084;2022-10-16T13:24:23;21.50;17.50;10.00
56495;PMS5003;42804;55.762;38.084;2022-10-16T13:26:55;23.75;21.25;14.50
56495;PMS5003;42804;55.762;38.084;2022-10-16T13:29:28;18.75;18.00;12.00
56495;PMS5003;42804;55.762;38.084;2022-10-16T13:32:09;19.00;14.00;9.00
56495;PMS5003;42804;55.762;38.084;2022-10-16T13:34:43;13.50;10.00;6.50
56495;PMS5003;42804;55.762;38.084;2022-10-16T13:37:16;16.75;14.50;8.50
56495;PMS5003;42804;55.762;38.084;2022-10-16T13:39:46;15.75;14.25;10.00
56495;PMS5003;42804;55.762;38.084;2022-10-16T13:42:22;15.25;13.00;9.00
56495;PMS5003;42804;55.762;38.084;2022-10-16T13:44:55;14.75;13.75;9.75
56495;PMS5003;42804;55.762;38.084;2022-10-16T13:47:25;14.75;12.00;9.00
56495;PMS5003;42804;55.762;38.084;2022-10-16T13:50:00;16.25;14.75;10.00
56495;PMS5003;42804;55.762;38.084;2022-10-16T13:52:29;18.00;16.25;11.50
56495;PMS5003;42804;55.762;38.084;2022-10-16T13:55:00;24.25;22.25;14.00
56495;PMS5003;42804;55.762;38.084;2022-10-16T13:57:29;19.25;17.25;11.75
56495;PMS5003;42804;55.762;38.084;2022-10-16T13:59:57;15.50;14.75;9.00
56495;PMS5003;42804;55.762;38.084;2022-10-16T14:02:30;57.00;44.25;25.50
56495;PMS5003;42804;55.762;38.084;2022-10-16T14:05:04;16.50;15.50;10.00
56495;PMS5003;42804;55.762;38.084;2022-10-16T14:07:33;15.00;14.75;10.00
56495;PMS5003;42804;55.762;38.084;2022-10-16T14:10:05;19.75;18.00;12.25
56495;PMS5003;42804;55.762;38.084;2022-10-16T14:12:42;26.25;24.25;16.00
56495;PMS5003;42804;55.762;38.084;2022-10-16T14:15:26;26.00;21.50;14.00